createdAt,value
2018-04-08T00:01:15.163Z,12.18
2018-04-08T00:03:43.403Z,12.75
2018-04-08T00:06:10.930Z,11.52
2018-04-08T00:08:38.411Z,11.98
2018-04-08T00:11:05.933Z,12.07
2018-04-08T00:13:34.170Z,11.35
2018-04-08T00:16:01.649Z,9.68
2018-04-08T00:18:29.920Z,10.50
2018-04-08T00:20:58.174Z,11.80
2018-04-08T00:23:25.878Z,10.45
2018-04-08T00:25:54.146Z,10.60
2018-04-08T00:28:22.415Z,11.90
2018-04-08T00:30:49.895Z,9.82
2018-04-08T00:33:17.555Z,10.70
2018-04-08T00:35:45.806Z,11.00
2018-04-08T00:38:13.310Z,10.82
2018-04-08T00:40:40.999Z,9.70
2018-04-08T00:43:08.664Z,10.68
2018-04-08T00:45:36.255Z,9.02
2018-04-08T00:48:03.750Z,10.60
2018-04-08T00:50:31.226Z,10.05
2018-04-08T00:52:59.487Z,10.10
2018-04-08T00:55:26.970Z,11.12
2018-04-08T00:57:54.547Z,10.27
2018-04-08T01:00:22.025Z,9.75
2018-04-08T01:02:49.518Z,10.02
2018-04-08T01:05:18.107Z,10.43
2018-04-08T01:07:45.599Z,10.27
2018-04-08T01:10:13.080Z,11.50
2018-04-08T01:12:40.577Z,10.75
2018-04-08T01:15:08.815Z,8.80
2018-04-08T01:17:36.330Z,11.57
2018-04-08T01:20:03.816Z,9.63
2018-04-08T01:22:31.347Z,10.30
2018-04-08T01:24:59.023Z,9.88
2018-04-08T01:27:26.671Z,9.45
2018-04-08T01:29:54.151Z,9.60
2018-04-08T01:32:21.648Z,10.32
2018-04-08T01:34:49.135Z,10.05
2018-04-08T01:37:17.394Z,9.63
2018-04-08T01:39:45.647Z,10.82
2018-04-08T01:42:13.128Z,10.80
2018-04-08T01:44:40.634Z,10.25
2018-04-08T01:47:08.112Z,10.77
2018-04-08T01:49:35.620Z,10.45
2018-04-08T01:52:03.875Z,11.40
2018-04-08T01:54:31.455Z,10.18
2018-04-08T01:56:59.776Z,10.50
2018-04-08T01:59:28.037Z,10.00
2018-04-08T02:01:55.519Z,10.75
2018-04-08T02:04:23.011Z,10.88
2018-04-08T02:06:50.668Z,11.18
2018-04-08T02:09:18.167Z,10.20
2018-04-08T02:11:45.647Z,9.43
2018-04-08T02:14:13.138Z,10.15
2018-04-08T02:16:40.619Z,11.02
2018-04-08T02:19:09.108Z,9.25
2018-04-08T02:21:37.355Z,10.95
2018-04-08T02:24:04.935Z,10.52
2018-04-08T02:26:32.524Z,11.15
2018-04-08T02:29:00.147Z,11.45
2018-04-08T02:31:27.643Z,11.43
2018-04-08T02:33:55.978Z,9.65
2018-04-08T02:36:23.466Z,10.88
2018-04-08T02:38:51.732Z,11.30
2018-04-08T02:41:19.404Z,11.82
2018-04-08T02:43:47.655Z,11.93
2018-04-08T02:46:15.195Z,10.73
2018-04-08T02:48:42.956Z,10.73
2018-04-08T02:51:10.481Z,11.40
2018-04-08T02:53:39.618Z,9.07
2018-04-08T02:56:07.911Z,10.02
2018-04-08T02:58:35.917Z,10.70
2018-04-08T03:01:04.183Z,10.10
2018-04-08T03:03:31.664Z,10.32
2018-04-08T03:05:59.923Z,9.73
2018-04-08T03:08:27.408Z,10.65
2018-04-08T03:10:54.898Z,10.15
2018-04-08T03:13:22.378Z,9.48
2018-04-08T03:15:49.877Z,10.40
2018-04-08T03:18:18.168Z,8.90
2018-04-08T03:20:45.658Z,8.57
2018-04-08T03:23:13.131Z,9.10
2018-04-08T03:25:40.820Z,10.00
2018-04-08T03:28:08.294Z,11.05
2018-04-08T03:30:36.652Z,11.43
2018-04-08T03:33:04.130Z,9.70
2018-04-08T03:35:32.541Z,9.25
2018-04-08T03:38:00.015Z,10.25
2018-04-08T03:40:27.514Z,10.40
2018-04-08T03:42:55.000Z,11.52
2018-04-08T03:45:25.371Z,11.45
2018-04-08T03:47:52.850Z,10.13
2018-04-08T03:50:20.398Z,10.45
2018-04-08T03:52:47.892Z,9.95
2018-04-08T03:55:16.151Z,11.18
2018-04-08T03:57:43.727Z,11.38
2018-04-08T04:00:12.226Z,12.35
2018-04-08T04:02:39.710Z,11.88
2018-04-08T04:05:07.391Z,9.90
2018-04-08T04:07:34.959Z,10.48
2018-04-08T04:10:02.440Z,10.65
2018-04-08T04:12:29.948Z,11.85
2018-04-08T04:14:57.667Z,10.88
2018-04-08T04:17:25.926Z,10.80
2018-04-08T04:20:05.142Z,10.52
2018-04-08T04:22:44.531Z,10.57
2018-04-08T04:25:36.245Z,10.15
2018-04-08T04:28:04.518Z,11.32
2018-04-08T04:30:32.007Z,10.20
2018-04-08T04:32:59.712Z,10.15
2018-04-08T04:35:27.196Z,10.35
2018-04-08T04:37:54.687Z,10.90
2018-04-08T04:40:22.176Z,11.02
2018-04-08T04:42:49.672Z,10.52
2018-04-08T04:45:17.163Z,10.07
2018-04-08T04:47:44.734Z,10.50
2018-04-08T04:50:12.303Z,10.48
2018-04-08T04:52:39.807Z,11.12
2018-04-08T04:55:07.669Z,9.70
2018-04-08T04:57:35.326Z,9.80
2018-04-08T05:00:02.810Z,10.05
2018-04-08T05:02:41.899Z,9.25
2018-04-08T05:05:09.374Z,11.15
2018-04-08T05:07:36.871Z,9.95
2018-04-08T05:10:06.062Z,11.30
2018-04-08T05:12:34.339Z,11.27
2018-04-08T05:15:01.892Z,12.15
2018-04-08T05:17:30.491Z,11.52
2018-04-08T05:19:58.738Z,10.82
2018-04-08T05:22:26.238Z,11.60
2018-04-08T05:24:55.578Z,12.25
2018-04-08T05:27:23.066Z,11.98
2018-04-08T05:29:50.734Z,11.52
2018-04-08T05:32:18.349Z,10.30
2018-04-08T05:34:46.866Z,11.55
2018-04-08T05:37:14.412Z,11.93
2018-04-08T05:39:42.190Z,13.10
2018-04-08T05:42:09.675Z,14.98
2018-04-08T05:44:37.610Z,14.15
2018-04-08T05:47:05.142Z,14.93
2018-04-08T05:49:32.640Z,14.30
2018-04-08T05:52:00.120Z,15.00
2018-04-08T05:54:27.806Z,13.15
2018-04-08T05:56:57.039Z,14.68
2018-04-08T05:59:25.367Z,15.70
2018-04-08T06:01:53.816Z,14.90
2018-04-08T06:04:22.207Z,14.93
2018-04-08T06:06:50.755Z,12.10
2018-04-08T06:09:18.267Z,13.85
2018-04-08T06:11:45.759Z,14.43
2018-04-08T06:14:13.251Z,13.95
2018-04-08T06:16:40.727Z,13.95
2018-04-08T06:19:08.215Z,12.15
2018-04-08T06:21:36.462Z,16.00
2018-04-08T06:24:03.962Z,12.15
2018-04-08T06:26:32.415Z,12.45
2018-04-08T06:29:00.882Z,16.05
2018-04-08T06:31:28.363Z,14.05
2018-04-08T06:33:55.869Z,13.90
2018-04-08T06:36:23.356Z,12.75
2018-04-08T06:38:52.026Z,14.10
2018-04-08T06:41:19.516Z,13.90
2018-04-08T06:43:47.180Z,13.70
2018-04-08T06:46:14.658Z,13.23
2018-04-08T06:48:43.410Z,12.82
2018-04-08T06:51:10.914Z,13.98
2018-04-08T06:53:39.163Z,13.50
2018-04-08T06:56:06.853Z,13.85
2018-04-08T06:58:35.103Z,14.00
2018-04-08T07:01:02.781Z,13.23
2018-04-08T07:03:30.263Z,14.20
2018-04-08T07:06:00.939Z,14.70
2018-04-08T07:08:28.423Z,14.05
2018-04-08T07:10:55.926Z,14.30
2018-04-08T07:13:23.411Z,14.30
2018-04-08T07:15:53.671Z,11.75
2018-04-08T07:18:21.402Z,13.20
2018-04-08T07:20:49.071Z,11.85
2018-04-08T07:23:16.758Z,13.10
2018-04-08T07:25:44.260Z,13.23
2018-04-08T07:28:12.595Z,12.50
2018-04-08T07:30:40.093Z,13.65
2018-04-08T07:33:14.529Z,12.98
2018-04-08T07:35:43.382Z,13.90
2018-04-08T07:38:12.479Z,13.18
2018-04-08T07:40:41.679Z,13.20
2018-04-08T07:43:10.715Z,13.27
2018-04-08T07:45:38.279Z,13.25
2018-04-08T07:48:06.162Z,13.75
2018-04-08T07:50:33.809Z,13.70
2018-04-08T07:53:01.298Z,12.30
2018-04-08T07:55:31.623Z,13.15
2018-04-08T07:57:59.120Z,13.30
2018-04-08T08:00:27.390Z,13.93
2018-04-08T08:02:55.645Z,14.73
2018-04-08T08:05:23.175Z,14.05
2018-04-08T08:07:50.639Z,13.05
2018-04-08T08:10:18.141Z,13.68
2018-04-08T08:12:46.399Z,14.05
2018-04-08T08:15:14.092Z,13.70
2018-04-08T08:17:42.534Z,13.40
2018-04-08T08:20:10.043Z,13.27
2018-04-08T08:22:38.294Z,13.52
2018-04-08T08:25:10.103Z,12.85
2018-04-08T08:27:37.617Z,14.40
2018-04-08T08:30:05.317Z,15.38
2018-04-08T08:32:32.819Z,13.38
2018-04-08T08:35:00.505Z,15.90
2018-04-08T08:37:28.978Z,14.10
2018-04-08T08:39:56.455Z,13.98
2018-04-08T08:42:24.727Z,13.55
2018-04-08T08:44:52.998Z,14.02
2018-04-08T08:47:21.243Z,14.82
2018-04-08T08:49:48.768Z,13.52
2018-04-08T08:52:16.279Z,14.77
2018-04-08T08:54:44.833Z,15.13
2018-04-08T08:57:12.336Z,15.52
2018-04-08T08:59:39.883Z,15.57
2018-04-08T09:02:07.382Z,14.13
2018-04-08T09:04:34.950Z,14.38
2018-04-08T09:07:03.289Z,15.70
2018-04-08T09:09:30.766Z,14.30
2018-04-08T09:11:59.042Z,13.70
2018-04-08T09:14:27.327Z,14.80
2018-04-08T09:16:55.595Z,13.32
2018-04-08T09:19:29.451Z,15.27
2018-04-08T09:22:02.668Z,14.18
2018-04-08T09:24:47.940Z,14.63
2018-04-08T09:27:15.440Z,13.95
2018-04-08T09:29:43.723Z,13.85
2018-04-08T09:32:12.719Z,15.13
2018-04-08T09:34:40.983Z,13.85
2018-04-08T09:37:09.263Z,13.68
2018-04-08T09:39:38.387Z,14.07
2018-04-08T09:42:06.083Z,14.60
2018-04-08T09:44:34.495Z,14.90
2018-04-08T09:47:02.758Z,14.95
2018-04-08T09:49:30.359Z,13.45
2018-04-08T09:51:59.039Z,14.70
2018-04-08T09:54:26.528Z,14.10
2018-04-08T09:56:54.863Z,13.90
2018-04-08T09:59:23.122Z,15.35
2018-04-08T10:01:51.595Z,15.75
2018-04-08T10:04:19.099Z,14.52
2018-04-08T10:06:46.583Z,14.93
2018-04-08T10:09:14.105Z,14.95
2018-04-08T10:11:42.375Z,14.35
2018-04-08T10:14:10.646Z,14.80
2018-04-08T10:16:38.127Z,14.40
2018-04-08T10:19:06.411Z,14.20
2018-04-08T10:21:37.994Z,13.48
2018-04-08T10:24:05.507Z,13.65
2018-04-08T10:26:33.787Z,14.07
2018-04-08T10:29:02.086Z,16.75
2018-04-08T10:31:29.691Z,13.57
2018-04-08T10:33:57.191Z,14.00
2018-04-08T10:36:25.453Z,13.62
2018-04-08T10:38:54.043Z,13.45
2018-04-08T10:41:21.723Z,13.85
2018-04-08T10:43:51.055Z,12.68
2018-04-08T10:46:18.628Z,13.65
2018-04-08T10:48:48.838Z,12.45
2018-04-08T10:51:16.323Z,12.40
2018-04-08T10:53:43.870Z,14.05
2018-04-08T10:56:11.458Z,12.50
2018-04-08T10:58:39.159Z,13.60
2018-04-08T11:01:06.643Z,14.30
2018-04-08T11:03:34.143Z,11.60
2018-04-08T11:06:01.820Z,11.45
2018-04-08T11:08:30.088Z,13.98
2018-04-08T11:10:58.414Z,10.18
2018-04-08T11:13:26.103Z,11.18
2018-04-08T11:15:53.610Z,11.88
2018-04-08T11:18:22.899Z,11.93
2018-04-08T11:20:50.383Z,9.27
2018-04-08T11:23:18.651Z,10.40
2018-04-08T11:25:46.898Z,9.55
2018-04-08T11:28:14.400Z,14.30
2018-04-08T11:30:42.099Z,12.82
2018-04-08T11:33:09.999Z,10.10
2018-04-08T11:35:38.462Z,9.45
2018-04-08T11:38:05.947Z,10.02
2018-04-08T11:40:34.224Z,10.23
2018-04-08T11:43:02.466Z,9.77
2018-04-08T11:45:30.390Z,10.07
2018-04-08T11:47:57.874Z,10.48
2018-04-08T11:50:25.382Z,11.57
2018-04-08T11:52:52.867Z,14.15
2018-04-08T11:55:21.141Z,8.60
2018-04-08T11:57:49.485Z,9.48
2018-04-08T12:00:17.080Z,8.23
2018-04-08T12:02:45.331Z,8.75
2018-04-08T12:05:12.862Z,7.35
2018-04-08T12:07:43.406Z,8.43
2018-04-08T12:10:10.910Z,11.10
2018-04-08T12:12:39.164Z,6.87
2018-04-08T12:15:07.471Z,5.18
2018-04-08T12:17:35.047Z,6.75
2018-04-08T12:20:02.546Z,6.20
2018-04-08T12:25:24.395Z,6.80
2018-04-08T12:27:51.882Z,8.15
2018-04-08T12:30:20.148Z,6.18
2018-04-08T12:32:47.642Z,5.22
2018-04-08T12:35:18.087Z,5.60
2018-04-08T12:37:45.570Z,5.95
2018-04-08T12:40:13.075Z,7.37
2018-04-08T12:42:41.323Z,6.22
2018-04-08T12:45:09.018Z,6.15
2018-04-08T12:47:37.331Z,8.80
2018-04-08T12:50:04.830Z,8.05
2018-04-08T12:55:00.988Z,7.90
2018-04-08T12:57:30.287Z,8.68
2018-04-08T12:59:58.575Z,8.23
2018-04-08T13:02:26.822Z,9.60
2018-04-08T13:04:54.315Z,8.75
2018-04-08T13:07:22.588Z,10.23
2018-04-08T13:09:50.906Z,10.40
2018-04-08T13:12:18.406Z,9.02
2018-04-08T13:14:46.663Z,9.48
2018-04-08T13:17:14.351Z,9.25
2018-04-08T13:19:41.840Z,9.43
2018-04-08T13:22:09.540Z,8.77
2018-04-08T13:24:37.244Z,10.07
2018-04-08T13:27:05.520Z,10.25
2018-04-08T13:29:33.783Z,9.05
2018-04-08T13:32:01.484Z,10.50
2018-04-08T13:34:30.130Z,9.73
2018-04-08T13:36:57.640Z,10.10
2018-04-08T13:39:25.140Z,10.25
2018-04-08T13:41:52.646Z,10.98
2018-04-08T13:44:20.138Z,10.52
2018-04-08T13:46:47.646Z,9.68
2018-04-08T13:49:15.945Z,9.60
2018-04-08T13:51:43.731Z,11.15
2018-04-08T13:54:11.226Z,10.18
2018-04-08T13:56:38.735Z,8.27
2018-04-08T13:59:06.222Z,8.98
2018-04-08T14:01:33.730Z,8.15
2018-04-08T14:04:01.995Z,7.85
2018-04-08T14:06:30.366Z,7.62
2018-04-08T14:08:58.951Z,7.05
2018-04-08T14:11:27.539Z,7.70
2018-04-08T14:13:55.023Z,7.35
2018-04-08T14:16:25.423Z,7.20
2018-04-08T14:18:53.195Z,7.32
2018-04-08T14:21:23.786Z,7.03
2018-04-08T14:23:51.295Z,6.25
2018-04-08T14:26:18.786Z,6.00
2018-04-08T14:28:46.286Z,5.85
2018-04-08T14:31:14.555Z,5.40
2018-04-08T14:33:42.822Z,5.85
2018-04-08T14:36:10.323Z,7.20
2018-04-08T14:38:37.839Z,7.00
2018-04-08T14:41:06.838Z,6.50
2018-04-08T14:43:35.118Z,6.28
2018-04-08T14:46:03.397Z,6.40
2018-04-08T14:48:31.662Z,6.93
2018-04-08T14:50:59.149Z,6.37
2018-04-08T14:53:26.655Z,5.43
2018-04-08T14:55:54.146Z,5.95
2018-04-08T14:58:21.656Z,5.35
2018-04-08T15:00:49.140Z,5.18
2018-04-08T15:03:16.648Z,5.65
2018-04-08T15:05:44.141Z,5.40
2018-04-08T15:08:11.651Z,5.03
2018-04-08T15:10:39.958Z,5.80
2018-04-08T15:13:08.188Z,4.85
2018-04-08T15:15:35.680Z,4.80
2018-04-08T15:18:03.951Z,5.47
2018-04-08T15:20:40.477Z,5.53
2018-04-08T15:23:07.984Z,5.57
2018-04-08T15:25:35.488Z,5.85
2018-04-08T15:28:02.990Z,4.80
2018-04-08T15:30:31.247Z,6.53
2018-04-08T15:32:58.747Z,5.47
2018-04-08T15:35:26.234Z,5.37
2018-04-08T15:37:53.740Z,5.55
2018-04-08T15:40:22.022Z,6.07
2018-04-08T15:42:50.277Z,6.05
2018-04-08T15:45:17.781Z,5.40
2018-04-08T15:47:45.280Z,5.30
2018-04-08T15:50:12.789Z,5.65
2018-04-08T15:52:41.059Z,5.25
2018-04-08T15:55:09.331Z,4.72
2018-04-08T15:57:37.708Z,4.87
2018-04-08T16:00:05.258Z,7.50
2018-04-08T16:02:32.747Z,4.78
2018-04-08T16:05:01.022Z,5.50
2018-04-08T16:07:28.517Z,6.00
2018-04-08T16:09:56.027Z,5.55
2018-04-08T16:12:23.537Z,7.05
2018-04-08T16:14:51.042Z,6.43
2018-04-08T16:17:19.303Z,5.95
2018-04-08T16:19:46.812Z,6.57
2018-04-08T16:22:14.312Z,5.43
2018-04-08T16:24:41.832Z,5.40
2018-04-08T16:27:09.318Z,6.87
2018-04-08T16:29:36.822Z,5.60
2018-04-08T16:32:05.102Z,7.72
2018-04-08T16:34:33.370Z,7.68
2018-04-08T16:37:00.858Z,6.68
2018-04-08T16:39:28.368Z,6.85
2018-04-08T16:41:55.862Z,6.12
2018-04-08T16:44:24.139Z,6.35
2018-04-08T16:46:52.407Z,6.05
2018-04-08T16:49:20.684Z,7.03
2018-04-08T16:51:48.972Z,6.65
2018-04-08T16:54:17.254Z,7.45
2018-04-08T16:56:45.514Z,7.97
2018-04-08T16:59:13.798Z,8.23
2018-04-08T17:01:42.090Z,8.13
2018-04-08T17:04:09.582Z,9.55
2018-04-08T17:06:37.087Z,6.82
2018-04-08T17:09:04.570Z,8.90
2018-04-08T17:11:32.834Z,8.10
2018-04-08T17:14:01.096Z,7.90
2018-04-08T17:16:28.596Z,8.55
2018-04-08T17:18:56.079Z,9.88
2018-04-08T17:21:23.588Z,8.98
2018-04-08T17:23:51.843Z,7.70
2018-04-08T17:26:19.339Z,7.70
2018-04-08T17:28:47.586Z,9.57
2018-04-08T17:31:15.083Z,7.20
2018-04-08T17:33:42.579Z,8.18
2018-04-08T17:36:10.085Z,9.00
2018-04-08T17:38:38.327Z,8.38
2018-04-08T17:41:05.832Z,10.25
2018-04-08T17:43:34.129Z,10.18
2018-04-08T17:46:01.637Z,9.77
2018-04-08T17:48:29.122Z,8.43
2018-04-08T17:50:57.389Z,9.00
2018-04-08T17:53:25.643Z,9.18
2018-04-08T17:55:53.178Z,7.25
2018-04-08T17:58:20.662Z,8.07
2018-04-08T18:00:48.263Z,6.35
2018-04-08T18:03:16.508Z,8.27
2018-04-08T18:05:43.999Z,7.75
2018-04-08T18:08:11.487Z,7.53
2018-04-08T18:10:38.987Z,8.40
2018-04-08T18:13:06.546Z,7.10
2018-04-08T18:15:34.051Z,7.78
2018-04-08T18:18:01.535Z,9.13
2018-04-08T18:20:29.039Z,7.07
2018-04-08T18:22:57.286Z,7.10
2018-04-08T18:25:24.775Z,6.37
2018-04-08T18:27:53.035Z,7.82
2018-04-08T18:30:20.519Z,7.55
2018-04-08T18:32:48.787Z,6.82
2018-04-08T18:35:17.041Z,6.70
2018-04-08T18:37:44.539Z,7.70
2018-04-08T18:40:12.791Z,8.13
2018-04-08T18:42:40.291Z,8.63
2018-04-08T18:45:07.780Z,9.18
2018-04-08T18:47:35.279Z,8.38
2018-04-08T18:50:03.537Z,8.70
2018-04-08T18:52:31.038Z,8.05
2018-04-08T18:54:59.279Z,6.57
2018-04-08T18:57:26.775Z,7.37
2018-04-08T18:59:54.260Z,8.10
2018-04-08T19:02:28.682Z,7.50
2018-04-08T19:04:56.162Z,8.23
2018-04-08T19:07:23.667Z,8.20
2018-04-08T19:09:51.911Z,8.55
2018-04-08T19:12:19.419Z,6.78
2018-04-08T19:14:52.624Z,7.62
2018-04-08T19:17:25.760Z,9.13
2018-04-08T19:19:54.024Z,8.35
2018-04-08T19:22:21.522Z,7.60
2018-04-08T19:24:49.774Z,8.48
2018-04-08T19:27:23.079Z,8.32
2018-04-08T19:29:50.579Z,7.82
2018-04-08T19:32:18.078Z,7.35
2018-04-08T19:34:45.562Z,8.48
2018-04-08T19:37:13.831Z,9.60
2018-04-08T19:39:41.312Z,8.93
2018-04-08T19:42:09.570Z,8.57
2018-04-08T19:44:37.819Z,8.63
2018-04-08T19:47:05.329Z,9.18
2018-04-08T19:49:32.820Z,8.40
2018-04-08T19:52:00.322Z,9.30
2018-04-08T19:54:28.580Z,9.05
2018-04-08T19:56:56.073Z,9.90
2018-04-08T19:59:24.340Z,8.75
2018-04-08T20:01:51.819Z,9.27
2018-04-08T20:04:20.161Z,8.95
2018-04-08T20:06:47.586Z,10.07
2018-04-08T20:09:15.084Z,8.48
2018-04-08T20:11:42.562Z,10.90
2018-04-08T20:14:10.831Z,10.27
2018-04-08T20:16:39.078Z,10.02
2018-04-08T20:19:06.575Z,10.00
2018-04-08T20:21:54.820Z,11.15
2018-04-08T20:24:23.091Z,10.77
2018-04-08T20:26:52.083Z,11.48
2018-04-08T20:29:21.096Z,11.30
2018-04-08T20:31:48.590Z,11.73
2018-04-08T20:34:16.088Z,11.32
2018-04-08T20:36:43.571Z,11.57
2018-04-08T20:39:11.838Z,11.75
2018-04-08T20:41:40.095Z,11.50
2018-04-08T20:44:07.599Z,10.60
2018-04-08T20:46:35.080Z,12.25
2018-04-08T20:49:02.616Z,11.32
2018-04-08T20:51:30.863Z,11.65
2018-04-08T20:53:58.365Z,11.90
2018-04-08T20:56:25.861Z,10.88
2018-04-08T20:58:53.358Z,11.70
2018-04-08T21:01:21.609Z,11.00
2018-04-08T21:03:49.119Z,11.12
2018-04-08T21:06:16.612Z,10.38
2018-04-08T21:08:44.107Z,11.57
2018-04-08T21:11:12.354Z,11.82
2018-04-08T21:13:39.867Z,10.50
2018-04-08T21:16:07.347Z,12.05
2018-04-08T21:18:34.834Z,11.90
2018-04-08T21:21:02.334Z,10.95
2018-04-08T21:23:29.818Z,11.12
2018-04-08T21:25:57.315Z,11.25
2018-04-08T21:28:24.794Z,12.27
2018-04-08T21:30:53.071Z,11.50
2018-04-08T21:33:21.334Z,11.27
2018-04-08T21:35:48.855Z,13.00
2018-04-08T21:38:17.547Z,13.73
2018-04-08T21:40:47.459Z,13.13
2018-04-08T21:43:15.015Z,13.45
2018-04-08T21:45:42.521Z,13.82
2018-04-08T21:48:11.191Z,12.05
2018-04-08T21:50:41.655Z,13.52
2018-04-08T21:53:09.806Z,12.50
2018-04-08T21:55:37.306Z,12.37
2018-04-08T21:58:04.791Z,12.00
2018-04-08T22:00:32.302Z,11.40
2018-04-08T22:03:00.559Z,12.95
2018-04-08T22:05:28.060Z,11.88
2018-04-08T22:07:55.550Z,10.75
2018-04-08T22:10:23.051Z,11.60
2018-04-08T22:12:51.306Z,12.00
2018-04-08T22:15:18.811Z,11.60
2018-04-08T22:17:47.067Z,12.00
2018-04-08T22:20:15.338Z,10.77
2018-04-08T22:22:42.823Z,12.40
2018-04-08T22:25:10.327Z,10.88
2018-04-08T22:27:37.820Z,11.38
2018-04-08T22:30:06.826Z,11.68
2018-04-08T22:32:48.805Z,12.98
2018-04-08T22:35:16.304Z,11.45
2018-04-08T22:37:43.791Z,11.90
2018-04-08T22:40:11.302Z,11.50
2018-04-08T22:42:39.560Z,10.70
2018-04-08T22:45:07.042Z,11.38
2018-04-08T22:47:35.307Z,9.90
2018-04-08T22:50:03.554Z,11.80
2018-04-08T22:52:31.055Z,12.37
2018-04-08T22:54:59.302Z,12.40
2018-04-08T22:57:26.801Z,12.30
2018-04-08T22:59:55.048Z,12.32
2018-04-08T23:02:22.547Z,13.27
2018-04-08T23:04:50.039Z,12.02
2018-04-08T23:07:17.540Z,10.27
2018-04-08T23:09:45.791Z,10.10
2018-04-08T23:12:13.287Z,11.68
2018-04-08T23:14:40.767Z,10.43
2018-04-08T23:17:08.271Z,11.15
2018-04-08T23:19:35.763Z,11.82
2018-04-08T23:22:04.034Z,11.25
2018-04-08T23:24:32.283Z,12.00
2018-04-08T23:26:59.783Z,11.52
2018-04-08T23:29:27.263Z,12.57
2018-04-08T23:31:54.764Z,11.10
2018-04-08T23:34:22.246Z,11.10
2018-04-08T23:36:50.517Z,11.05
2018-04-08T23:39:18.775Z,11.80
2018-04-08T23:41:46.272Z,11.27
2018-04-08T23:44:14.527Z,11.25
2018-04-08T23:46:42.798Z,11.57
2018-04-08T23:49:10.283Z,10.60
2018-04-08T23:51:38.539Z,9.50
2018-04-08T23:54:06.042Z,11.52
2018-04-08T23:56:33.523Z,11.30
2018-04-08T23:59:01.031Z,11.40
